sensor_id;sensor_type;location;lat;lon;timestamp;P1;durP1;ratioP1;P2;durP2;ratioP2
29774;SDS011;16676;51.202;6.774;2023-07-31T00:00:33;9.88;;;3.17;;
29774;SDS011;16676;51.202;6.774;2023-07-31T00:04:35;5.93;;;2.88;;
29774;SDS011;16676;51.202;6.774;2023-07-31T00:08:38;10.32;;;3.85;;
29774;SDS011;16676;51.202;6.774;2023-07-31T00:12:40;9.93;;;3.17;;
29774;SDS011;16676;51.202;6.774;2023-07-31T00:16:43;6.68;;;2.95;;
29774;SDS011;16676;51.202;6.774;2023-07-31T00:20:45;7.07;;;3.10;;
29774;SDS011;16676;51.202;6.774;2023-07-31T00:24:49;7.75;;;3.00;;
29774;SDS011;16676;51.202;6.774;2023-07-31T00:28:50;10.48;;;3.38;;
29774;SDS011;16676;51.202;6.774;2023-07-31T00:32:52;8.30;;;2.88;;
29774;SDS011;16676;51.202;6.774;2023-07-31T00:36:54;8.10;;;2.90;;
29774;SDS011;16676;51.202;6.774;2023-07-31T00:40:58;11.43;;;3.35;;
29774;SDS011;16676;51.202;6.774;2023-07-31T00:45:00;6.45;;;2.78;;
29774;SDS011;16676;51.202;6.774;2023-07-31T00:49:02;9.60;;;3.67;;
29774;SDS011;16676;51.202;6.774;2023-07-31T00:53:04;10.45;;;3.83;;
29774;SDS011;16676;51.202;6.774;2023-07-31T00:57:07;9.38;;;3.53;;
29774;SDS011;16676;51.202;6.774;2023-07-31T01:01:09;9.57;;;3.28;;
29774;SDS011;16676;51.202;6.774;2023-07-31T01:05:11;8.45;;;3.45;;
29774;SDS011;16676;51.202;6.774;2023-07-31T01:09:15;8.02;;;3.30;;
29774;SDS011;16676;51.202;6.774;2023-07-31T01:13:27;6.93;;;2.88;;
29774;SDS011;16676;51.202;6.774;2023-07-31T01:17:30;7.50;;;3.45;;
29774;SDS011;16676;51.202;6.774;2023-07-31T01:21:41;9.48;;;3.75;;
29774;SDS011;16676;51.202;6.774;2023-07-31T01:26:02;8.63;;;3.72;;
29774;SDS011;16676;51.202;6.774;2023-07-31T01:30:11;7.43;;;3.40;;
29774;SDS011;16676;51.202;6.774;2023-07-31T01:34:17;9.45;;;3.83;;
29774;SDS011;16676;51.202;6.774;2023-07-31T01:38:21;12.15;;;3.45;;
29774;SDS011;16676;51.202;6.774;2023-07-31T01:42:25;10.73;;;3.70;;
29774;SDS011;16676;51.202;6.774;2023-07-31T01:46:27;10.25;;;3.58;;
29774;SDS011;16676;51.202;6.774;2023-07-31T01:50:29;7.82;;;3.60;;
29774;SDS011;16676;51.202;6.774;2023-07-31T01:54:31;10.82;;;2.92;;
29774;SDS011;16676;51.202;6.774;2023-07-31T01:58:35;11.75;;;4.13;;
29774;SDS011;16676;51.202;6.774;2023-07-31T02:02:36;8.43;;;3.35;;
29774;SDS011;16676;51.202;6.774;2023-07-31T02:06:38;11.65;;;3.75;;
29774;SDS011;16676;51.202;6.774;2023-07-31T02:10:40;8.15;;;3.72;;
29774;SDS011;16676;51.202;6.774;2023-07-31T02:14:44;11.48;;;3.75;;
29774;SDS011;16676;51.202;6.774;2023-07-31T02:18:46;8.57;;;3.80;;
29774;SDS011;16676;51.202;6.774;2023-07-31T02:22:48;13.13;;;4.00;;
29774;SDS011;16676;51.202;6.774;2023-07-31T02:26:50;11.40;;;4.45;;
29774;SDS011;16676;51.202;6.774;2023-07-31T02:30:53;9.93;;;4.00;;
29774;SDS011;16676;51.202;6.774;2023-07-31T02:34:55;9.90;;;3.88;;
29774;SDS011;16676;51.202;6.774;2023-07-31T02:38:57;8.90;;;3.70;;
29774;SDS011;16676;51.202;6.774;2023-07-31T02:42:59;7.68;;;3.70;;
29774;SDS011;16676;51.202;6.774;2023-07-31T02:47:02;9.40;;;3.67;;
29774;SDS011;16676;51.202;6.774;2023-07-31T02:51:04;8.82;;;3.28;;
29774;SDS011;16676;51.202;6.774;2023-07-31T02:55:06;11.57;;;3.72;;
29774;SDS011;16676;51.202;6.774;2023-07-31T02:59:09;9.20;;;3.42;;
29774;SDS011;16676;51.202;6.774;2023-07-31T03:03:12;9.50;;;3.15;;
29774;SDS011;16676;51.202;6.774;2023-07-31T03:07:14;8.98;;;3.78;;
29774;SDS011;16676;51.202;6.774;2023-07-31T03:11:16;12.05;;;3.35;;
29774;SDS011;16676;51.202;6.774;2023-07-31T03:15:18;8.15;;;3.40;;
29774;SDS011;16676;51.202;6.774;2023-07-31T03:19:21;6.97;;;3.33;;
29774;SDS011;16676;51.202;6.774;2023-07-31T03:23:23;11.10;;;3.58;;
29774;SDS011;16676;51.202;6.774;2023-07-31T03:27:27;7.05;;;3.30;;
29774;SDS011;16676;51.202;6.774;2023-07-31T03:31:28;9.18;;;3.53;;
29774;SDS011;16676;51.202;6.774;2023-07-31T03:35:32;10.32;;;4.05;;
29774;SDS011;16676;51.202;6.774;2023-07-31T03:39:34;8.98;;;3.40;;
29774;SDS011;16676;51.202;6.774;2023-07-31T03:43:36;5.80;;;3.05;;
29774;SDS011;16676;51.202;6.774;2023-07-31T03:47:37;9.07;;;3.80;;
29774;SDS011;16676;51.202;6.774;2023-07-31T03:51:41;11.50;;;3.97;;
29774;SDS011;16676;51.202;6.774;2023-07-31T03:55:43;10.68;;;3.45;;
29774;SDS011;16676;51.202;6.774;2023-07-31T03:59:45;9.63;;;3.60;;
29774;SDS011;16676;51.202;6.774;2023-07-31T04:03:46;7.90;;;3.53;;
29774;SDS011;16676;51.202;6.774;2023-07-31T04:07:50;10.30;;;3.70;;
29774;SDS011;16676;51.202;6.774;2023-07-31T04:11:52;8.57;;;3.67;;
29774;SDS011;16676;51.202;6.774;2023-07-31T04:15:54;10.25;;;3.85;;
29774;SDS011;16676;51.202;6.774;2023-07-31T04:19:55;10.57;;;4.07;;
29774;SDS011;16676;51.202;6.774;2023-07-31T04:23:59;10.43;;;4.05;;
29774;SDS011;16676;51.202;6.774;2023-07-31T04:28:01;10.27;;;3.85;;
29774;SDS011;16676;51.202;6.774;2023-07-31T04:32:03;9.40;;;3.60;;
29774;SDS011;16676;51.202;6.774;2023-07-31T04:36:05;8.95;;;3.88;;
29774;SDS011;16676;51.202;6.774;2023-07-31T04:40:09;9.10;;;3.70;;
29774;SDS011;16676;51.202;6.774;2023-07-31T04:44:11;8.88;;;3.97;;
29774;SDS011;16676;51.202;6.774;2023-07-31T04:48:14;13.40;;;4.47;;
29774;SDS011;16676;51.202;6.774;2023-07-31T04:52:16;12.43;;;3.90;;
29774;SDS011;16676;51.202;6.774;2023-07-31T04:56:19;11.43;;;4.43;;
29774;SDS011;16676;51.202;6.774;2023-07-31T05:00:21;7.45;;;4.03;;
29774;SDS011;16676;51.202;6.774;2023-07-31T05:04:23;8.63;;;4.15;;
29774;SDS011;16676;51.202;6.774;2023-07-31T05:08:25;9.30;;;4.13;;
29774;SDS011;16676;51.202;6.774;2023-07-31T05:12:28;9.00;;;4.20;;
29774;SDS011;16676;51.202;6.774;2023-07-31T05:16:30;9.48;;;4.45;;
29774;SDS011;16676;51.202;6.774;2023-07-31T05:20:32;7.32;;;4.10;;
29774;SDS011;16676;51.202;6.774;2023-07-31T05:24:34;10.40;;;3.70;;
29774;SDS011;16676;51.202;6.774;2023-07-31T05:28:37;8.60;;;3.78;;
29774;SDS011;16676;51.202;6.774;2023-07-31T05:32:39;11.07;;;3.85;;
29774;SDS011;16676;51.202;6.774;2023-07-31T05:36:41;10.10;;;4.45;;
29774;SDS011;16676;51.202;6.774;2023-07-31T05:40:43;9.65;;;4.00;;
29774;SDS011;16676;51.202;6.774;2023-07-31T05:44:46;10.82;;;4.15;;
29774;SDS011;16676;51.202;6.774;2023-07-31T05:48:48;9.02;;;4.07;;
29774;SDS011;16676;51.202;6.774;2023-07-31T05:52:50;8.05;;;3.50;;
29774;SDS011;16676;51.202;6.774;2023-07-31T05:56:52;9.65;;;3.88;;
29774;SDS011;16676;51.202;6.774;2023-07-31T06:00:55;7.82;;;3.90;;
29774;SDS011;16676;51.202;6.774;2023-07-31T06:04:57;7.38;;;3.95;;
29774;SDS011;16676;51.202;6.774;2023-07-31T06:08:59;8.15;;;3.88;;
29774;SDS011;16676;51.202;6.774;2023-07-31T06:13:01;11.75;;;3.80;;
29774;SDS011;16676;51.202;6.774;2023-07-31T06:17:05;8.57;;;4.10;;
29774;SDS011;16676;51.202;6.774;2023-07-31T06:21:07;8.65;;;3.08;;
29774;SDS011;16676;51.202;6.774;2023-07-31T06:25:09;7.65;;;3.53;;
29774;SDS011;16676;51.202;6.774;2023-07-31T06:29:11;7.35;;;3.03;;
29774;SDS011;16676;51.202;6.774;2023-07-31T06:33:14;5.88;;;3.20;;
29774;SDS011;16676;51.202;6.774;2023-07-31T06:37:16;6.70;;;3.05;;
29774;SDS011;16676;51.202;6.774;2023-07-31T06:41:18;7.47;;;3.08;;
29774;SDS011;16676;51.202;6.774;2023-07-31T06:45:20;8.90;;;3.05;;
29774;SDS011;16676;51.202;6.774;2023-07-31T06:49:23;6.05;;;3.15;;
29774;SDS011;16676;51.202;6.774;2023-07-31T06:53:25;5.57;;;3.10;;
29774;SDS011;16676;51.202;6.774;2023-07-31T06:57:27;7.05;;;3.10;;
29774;SDS011;16676;51.202;6.774;2023-07-31T07:01:29;7.25;;;3.25;;
29774;SDS011;16676;51.202;6.774;2023-07-31T07:05:32;8.38;;;3.20;;
29774;SDS011;16676;51.202;6.774;2023-07-31T07:09:34;7.43;;;3.17;;
29774;SDS011;16676;51.202;6.774;2023-07-31T07:13:36;9.57;;;3.53;;
29774;SDS011;16676;51.202;6.774;2023-07-31T07:17:38;5.53;;;2.83;;
29774;SDS011;16676;51.202;6.774;2023-07-31T07:21:42;6.20;;;3.10;;
29774;SDS011;16676;51.202;6.774;2023-07-31T07:25:44;9.65;;;3.22;;
29774;SDS011;16676;51.202;6.774;2023-07-31T07:29:47;5.68;;;3.20;;
29774;SDS011;16676;51.202;6.774;2023-07-31T07:33:51;11.48;;;3.22;;
29774;SDS011;16676;51.202;6.774;2023-07-31T07:37:54;6.57;;;3.00;;
29774;SDS011;16676;51.202;6.774;2023-07-31T07:41:57;5.13;;;3.38;;
29774;SDS011;16676;51.202;6.774;2023-07-31T07:45:58;6.75;;;3.13;;
29774;SDS011;16676;51.202;6.774;2023-07-31T07:50:00;5.75;;;2.78;;
29774;SDS011;16676;51.202;6.774;2023-07-31T07:54:04;5.38;;;2.85;;
29774;SDS011;16676;51.202;6.774;2023-07-31T07:58:06;7.20;;;3.15;;
29774;SDS011;16676;51.202;6.774;2023-07-31T08:02:09;7.97;;;2.50;;
29774;SDS011;16676;51.202;6.774;2023-07-31T08:06:11;5.78;;;2.60;;
29774;SDS011;16676;51.202;6.774;2023-07-31T08:10:14;9.35;;;3.10;;
29774;SDS011;16676;51.202;6.774;2023-07-31T08:14:16;6.55;;;2.50;;
29774;SDS011;16676;51.202;6.774;2023-07-31T08:18:18;4.90;;;2.50;;
29774;SDS011;16676;51.202;6.774;2023-07-31T08:22:21;7.63;;;2.90;;
29774;SDS011;16676;51.202;6.774;2023-07-31T08:26:24;5.40;;;2.30;;
29774;SDS011;16676;51.202;6.774;2023-07-31T08:30:26;3.95;;;2.58;;
29774;SDS011;16676;51.202;6.774;2023-07-31T08:34:28;5.75;;;2.70;;
29774;SDS011;16676;51.202;6.774;2023-07-31T08:38:30;5.05;;;2.38;;
29774;SDS011;16676;51.202;6.774;2023-07-31T08:42:34;4.90;;;2.55;;
29774;SDS011;16676;51.202;6.774;2023-07-31T08:46:44;5.07;;;2.63;;
29774;SDS011;16676;51.202;6.774;2023-07-31T08:50:47;5.75;;;2.40;;
29774;SDS011;16676;51.202;6.774;2023-07-31T08:54:49;5.25;;;2.40;;
29774;SDS011;16676;51.202;6.774;2023-07-31T08:58:52;4.22;;;2.33;;
29774;SDS011;16676;51.202;6.774;2023-07-31T09:02:57;5.90;;;2.80;;
29774;SDS011;16676;51.202;6.774;2023-07-31T09:07:02;7.43;;;2.65;;
29774;SDS011;16676;51.202;6.774;2023-07-31T09:11:05;6.97;;;2.60;;
29774;SDS011;16676;51.202;6.774;2023-07-31T09:15:09;5.95;;;2.67;;
29774;SDS011;16676;51.202;6.774;2023-07-31T09:19:12;4.43;;;2.10;;
29774;SDS011;16676;51.202;6.774;2023-07-31T09:23:14;5.97;;;1.90;;
29774;SDS011;16676;51.202;6.774;2023-07-31T09:27:16;7.43;;;2.67;;
29774;SDS011;16676;51.202;6.774;2023-07-31T09:31:22;5.38;;;2.17;;
29774;SDS011;16676;51.202;6.774;2023-07-31T09:35:34;6.00;;;2.20;;
29774;SDS011;16676;51.202;6.774;2023-07-31T09:39:45;4.65;;;2.42;;
29774;SDS011;16676;51.202;6.774;2023-07-31T09:43:52;4.57;;;2.20;;
29774;SDS011;16676;51.202;6.774;2023-07-31T09:47:56;4.45;;;2.05;;
29774;SDS011;16676;51.202;6.774;2023-07-31T09:51:58;5.70;;;2.75;;
29774;SDS011;16676;51.202;6.774;2023-07-31T09:56:00;5.95;;;2.25;;
29774;SDS011;16676;51.202;6.774;2023-07-31T10:00:03;7.18;;;2.35;;
29774;SDS011;16676;51.202;6.774;2023-07-31T10:04:10;5.28;;;2.40;;
29774;SDS011;16676;51.202;6.774;2023-07-31T10:08:13;5.25;;;2.15;;
29774;SDS011;16676;51.202;6.774;2023-07-31T10:12:17;6.13;;;2.60;;
29774;SDS011;16676;51.202;6.774;2023-07-31T10:16:22;6.65;;;2.50;;
29774;SDS011;16676;51.202;6.774;2023-07-31T10:20:25;6.28;;;2.20;;
29774;SDS011;16676;51.202;6.774;2023-07-31T10:24:28;3.63;;;2.35;;
29774;SDS011;16676;51.202;6.774;2023-07-31T10:28:31;9.25;;;2.30;;
29774;SDS011;16676;51.202;6.774;2023-07-31T10:32:35;5.55;;;2.35;;
29774;SDS011;16676;51.202;6.774;2023-07-31T10:36:40;5.75;;;2.53;;
29774;SDS011;16676;51.202;6.774;2023-07-31T10:40:42;6.38;;;2.40;;
29774;SDS011;16676;51.202;6.774;2023-07-31T10:44:46;8.23;;;2.45;;
29774;SDS011;16676;51.202;6.774;2023-07-31T10:48:49;6.22;;;2.47;;
29774;SDS011;16676;51.202;6.774;2023-07-31T10:53:01;7.32;;;2.10;;
29774;SDS011;16676;51.202;6.774;2023-07-31T10:57:04;5.97;;;2.70;;
29774;SDS011;16676;51.202;6.774;2023-07-31T11:01:20;4.07;;;2.30;;
29774;SDS011;16676;51.202;6.774;2023-07-31T11:05:23;4.15;;;2.28;;
29774;SDS011;16676;51.202;6.774;2023-07-31T11:09:47;5.18;;;2.10;;
29774;SDS011;16676;51.202;6.774;2023-07-31T11:13:50;6.32;;;2.03;;
29774;SDS011;16676;51.202;6.774;2023-07-31T11:17:53;4.88;;;2.13;;
29774;SDS011;16676;51.202;6.774;2023-07-31T11:21:58;3.22;;;2.17;;
29774;SDS011;16676;51.202;6.774;2023-07-31T11:26:01;5.40;;;1.80;;
29774;SDS011;16676;51.202;6.774;2023-07-31T11:30:04;3.22;;;1.60;;
29774;SDS011;16676;51.202;6.774;2023-07-31T11:34:07;3.47;;;1.73;;
29774;SDS011;16676;51.202;6.774;2023-07-31T11:38:09;4.05;;;1.48;;
29774;SDS011;16676;51.202;6.774;2023-07-31T11:42:12;6.43;;;1.50;;
29774;SDS011;16676;51.202;6.774;2023-07-31T11:46:17;4.53;;;1.45;;
29774;SDS011;16676;51.202;6.774;2023-07-31T11:50:19;2.42;;;1.38;;
29774;SDS011;16676;51.202;6.774;2023-07-31T11:54:21;5.32;;;1.50;;
29774;SDS011;16676;51.202;6.774;2023-07-31T11:58:24;5.32;;;1.30;;
29774;SDS011;16676;51.202;6.774;2023-07-31T12:02:27;2.95;;;1.35;;
29774;SDS011;16676;51.202;6.774;2023-07-31T12:06:33;3.58;;;1.13;;
29774;SDS011;16676;51.202;6.774;2023-07-31T12:10:35;4.30;;;1.35;;
29774;SDS011;16676;51.202;6.774;2023-07-31T12:14:41;2.83;;;1.20;;
29774;SDS011;16676;51.202;6.774;2023-07-31T12:18:43;2.03;;;1.30;;
29774;SDS011;16676;51.202;6.774;2023-07-31T12:22:46;2.75;;;1.40;;
29774;SDS011;16676;51.202;6.774;2023-07-31T12:26:48;2.88;;;1.20;;
29774;SDS011;16676;51.202;6.774;2023-07-31T12:30:51;2.20;;;1.30;;
29774;SDS011;16676;51.202;6.774;2023-07-31T12:39:00;2.60;;;1.38;;
29774;SDS011;16676;51.202;6.774;2023-07-31T12:43:03;2.17;;;1.40;;
29774;SDS011;16676;51.202;6.774;2023-07-31T12:47:06;2.22;;;1.23;;
29774;SDS011;16676;51.202;6.774;2023-07-31T12:51:08;2.38;;;1.52;;
29774;SDS011;16676;51.202;6.774;2023-07-31T12:55:10;5.75;;;2.30;;
29774;SDS011;16676;51.202;6.774;2023-07-31T12:59:12;3.10;;;1.77;;
29774;SDS011;16676;51.202;6.774;2023-07-31T13:03:15;8.57;;;2.35;;
29774;SDS011;16676;51.202;6.774;2023-07-31T13:07:17;3.45;;;2.22;;
29774;SDS011;16676;51.202;6.774;2023-07-31T13:11:19;8.48;;;3.40;;
29774;SDS011;16676;51.202;6.774;2023-07-31T13:15:21;6.20;;;2.60;;
29774;SDS011;16676;51.202;6.774;2023-07-31T13:19:25;4.63;;;2.30;;
29774;SDS011;16676;51.202;6.774;2023-07-31T13:23:27;4.75;;;2.42;;
29774;SDS011;16676;51.202;6.774;2023-07-31T13:27:28;4.32;;;2.33;;
29774;SDS011;16676;51.202;6.774;2023-07-31T13:31:30;5.05;;;2.65;;
29774;SDS011;16676;51.202;6.774;2023-07-31T13:35:34;4.65;;;2.08;;
29774;SDS011;16676;51.202;6.774;2023-07-31T13:39:36;4.72;;;2.55;;
29774;SDS011;16676;51.202;6.774;2023-07-31T13:43:38;4.82;;;2.50;;
29774;SDS011;16676;51.202;6.774;2023-07-31T13:47:41;6.32;;;2.60;;
29774;SDS011;16676;51.202;6.774;2023-07-31T13:51:44;5.72;;;2.78;;
29774;SDS011;16676;51.202;6.774;2023-07-31T13:55:46;5.85;;;2.45;;
29774;SDS011;16676;51.202;6.774;2023-07-31T13:59:49;4.18;;;2.58;;
29774;SDS011;16676;51.202;6.774;2023-07-31T14:03:51;6.32;;;2.92;;
29774;SDS011;16676;51.202;6.774;2023-07-31T14:07:54;4.25;;;2.58;;
29774;SDS011;16676;51.202;6.774;2023-07-31T14:11:56;4.78;;;2.25;;
29774;SDS011;16676;51.202;6.774;2023-07-31T14:15:58;5.28;;;2.85;;
29774;SDS011;16676;51.202;6.774;2023-07-31T14:20:00;4.18;;;2.22;;
29774;SDS011;16676;51.202;6.774;2023-07-31T14:24:04;4.75;;;2.17;;
29774;SDS011;16676;51.202;6.774;2023-07-31T14:28:06;3.35;;;2.15;;
29774;SDS011;16676;51.202;6.774;2023-07-31T14:32:08;4.63;;;2.55;;
29774;SDS011;16676;51.202;6.774;2023-07-31T14:36:10;5.28;;;2.47;;
29774;SDS011;16676;51.202;6.774;2023-07-31T14:40:13;3.42;;;2.30;;
29774;SDS011;16676;51.202;6.774;2023-07-31T14:44:15;4.22;;;2.22;;
29774;SDS011;16676;51.202;6.774;2023-07-31T14:48:17;4.35;;;2.10;;
29774;SDS011;16676;51.202;6.774;2023-07-31T14:52:19;3.83;;;2.30;;
29774;SDS011;16676;51.202;6.774;2023-07-31T14:56:22;3.75;;;2.30;;
29774;SDS011;16676;51.202;6.774;2023-07-31T15:00:26;5.15;;;2.17;;
29774;SDS011;16676;51.202;6.774;2023-07-31T15:04:29;3.88;;;2.45;;
29774;SDS011;16676;51.202;6.774;2023-07-31T15:08:31;3.35;;;2.08;;
29774;SDS011;16676;51.202;6.774;2023-07-31T15:12:34;4.78;;;2.47;;
29774;SDS011;16676;51.202;6.774;2023-07-31T15:16:37;3.92;;;2.30;;
29774;SDS011;16676;51.202;6.774;2023-07-31T15:20:39;4.18;;;2.20;;
29774;SDS011;16676;51.202;6.774;2023-07-31T15:24:41;4.85;;;2.72;;
29774;SDS011;16676;51.202;6.774;2023-07-31T15:28:48;5.32;;;2.25;;
29774;SDS011;16676;51.202;6.774;2023-07-31T15:32:57;4.38;;;2.50;;
29774;SDS011;16676;51.202;6.774;2023-07-31T15:36:59;5.60;;;2.42;;
29774;SDS011;16676;51.202;6.774;2023-07-31T15:41:01;4.18;;;2.40;;
29774;SDS011;16676;51.202;6.774;2023-07-31T15:45:05;3.42;;;2.20;;
29774;SDS011;16676;51.202;6.774;2023-07-31T15:49:08;4.03;;;2.30;;
29774;SDS011;16676;51.202;6.774;2023-07-31T15:53:11;4.85;;;2.70;;
29774;SDS011;16676;51.202;6.774;2023-07-31T15:57:13;4.07;;;2.55;;
29774;SDS011;16676;51.202;6.774;2023-07-31T16:01:16;6.60;;;3.00;;
29774;SDS011;16676;51.202;6.774;2023-07-31T16:05:18;5.55;;;2.85;;
29774;SDS011;16676;51.202;6.774;2023-07-31T16:09:20;4.90;;;2.95;;
29774;SDS011;16676;51.202;6.774;2023-07-31T16:13:22;4.57;;;2.92;;
29774;SDS011;16676;51.202;6.774;2023-07-31T16:17:25;4.20;;;2.80;;
29774;SDS011;16676;51.202;6.774;2023-07-31T16:21:28;4.93;;;2.60;;
29774;SDS011;16676;51.202;6.774;2023-07-31T16:25:30;4.53;;;2.55;;
29774;SDS011;16676;51.202;6.774;2023-07-31T16:29:31;4.40;;;2.95;;
29774;SDS011;16676;51.202;6.774;2023-07-31T16:33:35;4.85;;;2.78;;
29774;SDS011;16676;51.202;6.774;2023-07-31T16:37:37;6.32;;;2.88;;
29774;SDS011;16676;51.202;6.774;2023-07-31T16:41:40;5.03;;;2.72;;
29774;SDS011;16676;51.202;6.774;2023-07-31T16:45:42;3.83;;;2.78;;
29774;SDS011;16676;51.202;6.774;2023-07-31T16:49:45;5.05;;;2.58;;
29774;SDS011;16676;51.202;6.774;2023-07-31T16:53:47;5.15;;;2.55;;
29774;SDS011;16676;51.202;6.774;2023-07-31T16:57:50;3.47;;;2.58;;
29774;SDS011;16676;51.202;6.774;2023-07-31T17:01:51;4.22;;;2.70;;
29774;SDS011;16676;51.202;6.774;2023-07-31T17:05:55;4.13;;;2.70;;
29774;SDS011;16676;51.202;6.774;2023-07-31T17:09:57;3.25;;;2.00;;
29774;SDS011;16676;51.202;6.774;2023-07-31T17:14:00;3.90;;;2.25;;
29774;SDS011;16676;51.202;6.774;2023-07-31T17:18:03;2.95;;;1.85;;
29774;SDS011;16676;51.202;6.774;2023-07-31T17:22:07;3.15;;;2.22;;
29774;SDS011;16676;51.202;6.774;2023-07-31T17:26:09;3.88;;;2.00;;
29774;SDS011;16676;51.202;6.774;2023-07-31T17:30:13;2.50;;;2.00;;
29774;SDS011;16676;51.202;6.774;2023-07-31T17:34:15;4.05;;;2.30;;
29774;SDS011;16676;51.202;6.774;2023-07-31T17:38:18;4.07;;;2.10;;
29774;SDS011;16676;51.202;6.774;2023-07-31T17:42:20;4.28;;;2.17;;
29774;SDS011;16676;51.202;6.774;2023-07-31T17:46:22;5.32;;;2.38;;
29774;SDS011;16676;51.202;6.774;2023-07-31T17:50:24;6.10;;;2.58;;
29774;SDS011;16676;51.202;6.774;2023-07-31T17:54:28;5.15;;;2.95;;
29774;SDS011;16676;51.202;6.774;2023-07-31T17:58:30;10.02;;;3.90;;
29774;SDS011;16676;51.202;6.774;2023-07-31T18:02:32;9.45;;;3.50;;
29774;SDS011;16676;51.202;6.774;2023-07-31T18:06:35;5.22;;;3.05;;
29774;SDS011;16676;51.202;6.774;2023-07-31T18:10:44;4.93;;;3.00;;
29774;SDS011;16676;51.202;6.774;2023-07-31T18:14:46;6.30;;;3.08;;
29774;SDS011;16676;51.202;6.774;2023-07-31T18:18:48;6.03;;;3.05;;
29774;SDS011;16676;51.202;6.774;2023-07-31T18:22:50;5.03;;;2.53;;
29774;SDS011;16676;51.202;6.774;2023-07-31T18:26:53;4.22;;;2.70;;
29774;SDS011;16676;51.202;6.774;2023-07-31T18:30:56;5.55;;;2.72;;
29774;SDS011;16676;51.202;6.774;2023-07-31T18:34:59;3.83;;;2.40;;
29774;SDS011;16676;51.202;6.774;2023-07-31T18:39:00;4.63;;;2.50;;
29774;SDS011;16676;51.202;6.774;2023-07-31T18:43:04;4.00;;;2.25;;
29774;SDS011;16676;51.202;6.774;2023-07-31T18:47:06;3.80;;;2.08;;
29774;SDS011;16676;51.202;6.774;2023-07-31T18:51:08;3.25;;;1.90;;
29774;SDS011;16676;51.202;6.774;2023-07-31T18:55:10;2.67;;;1.88;;
29774;SDS011;16676;51.202;6.774;2023-07-31T18:59:13;2.88;;;1.95;;
29774;SDS011;16676;51.202;6.774;2023-07-31T19:03:15;2.60;;;1.60;;
29774;SDS011;16676;51.202;6.774;2023-07-31T19:07:17;2.40;;;1.70;;
29774;SDS011;16676;51.202;6.774;2023-07-31T19:11:19;5.18;;;1.70;;
29774;SDS011;16676;51.202;6.774;2023-07-31T19:15:22;3.17;;;1.27;;
29774;SDS011;16676;51.202;6.774;2023-07-31T19:19:24;2.92;;;1.67;;
29774;SDS011;16676;51.202;6.774;2023-07-31T19:23:26;1.92;;;1.40;;
29774;SDS011;16676;51.202;6.774;2023-07-31T19:27:28;2.10;;;1.33;;
29774;SDS011;16676;51.202;6.774;2023-07-31T19:31:31;1.95;;;1.27;;
29774;SDS011;16676;51.202;6.774;2023-07-31T19:35:33;2.65;;;1.20;;
29774;SDS011;16676;51.202;6.774;2023-07-31T19:39:35;1.63;;;1.05;;
29774;SDS011;16676;51.202;6.774;2023-07-31T19:43:37;3.15;;;1.35;;
29774;SDS011;16676;51.202;6.774;2023-07-31T19:47:40;2.30;;;1.10;;
29774;SDS011;16676;51.202;6.774;2023-07-31T19:51:42;3.75;;;1.15;;
29774;SDS011;16676;51.202;6.774;2023-07-31T19:55:44;2.03;;;1.10;;
29774;SDS011;16676;51.202;6.774;2023-07-31T19:59:46;3.95;;;1.20;;
29774;SDS011;16676;51.202;6.774;2023-07-31T20:03:49;6.22;;;1.15;;
29774;SDS011;16676;51.202;6.774;2023-07-31T20:07:51;1.85;;;0.90;;
29774;SDS011;16676;51.202;6.774;2023-07-31T20:11:53;5.70;;;1.73;;
29774;SDS011;16676;51.202;6.774;2023-07-31T20:15:55;1.70;;;0.90;;
29774;SDS011;16676;51.202;6.774;2023-07-31T20:19:58;2.50;;;0.93;;
29774;SDS011;16676;51.202;6.774;2023-07-31T20:24:00;1.88;;;1.00;;
29774;SDS011;16676;51.202;6.774;2023-07-31T20:28:03;3.33;;;0.95;;
29774;SDS011;16676;51.202;6.774;2023-07-31T20:32:05;1.42;;;0.95;;
29774;SDS011;16676;51.202;6.774;2023-07-31T20:36:09;2.83;;;1.00;;
29774;SDS011;16676;51.202;6.774;2023-07-31T20:40:11;2.53;;;1.20;;
29774;SDS011;16676;51.202;6.774;2023-07-31T20:44:14;1.85;;;0.70;;
29774;SDS011;16676;51.202;6.774;2023-07-31T20:48:16;2.65;;;0.90;;
29774;SDS011;16676;51.202;6.774;2023-07-31T20:52:19;1.15;;;0.80;;
29774;SDS011;16676;51.202;6.774;2023-07-31T20:56:21;1.17;;;0.68;;
29774;SDS011;16676;51.202;6.774;2023-07-31T21:00:23;2.67;;;0.73;;
29774;SDS011;16676;51.202;6.774;2023-07-31T21:04:25;1.55;;;0.90;;
29774;SDS011;16676;51.202;6.774;2023-07-31T21:08:29;2.42;;;1.00;;
29774;SDS011;16676;51.202;6.774;2023-07-31T21:12:31;1.67;;;1.05;;
29774;SDS011;16676;51.202;6.774;2023-07-31T21:16:33;0.80;;;0.60;;
29774;SDS011;16676;51.202;6.774;2023-07-31T21:20:35;1.65;;;0.98;;
29774;SDS011;16676;51.202;6.774;2023-07-31T21:24:39;1.95;;;1.00;;
29774;SDS011;16676;51.202;6.774;2023-07-31T21:28:41;1.17;;;0.80;;
29774;SDS011;16676;51.202;6.774;2023-07-31T21:32:43;3.70;;;0.70;;
29774;SDS011;16676;51.202;6.774;2023-07-31T21:36:45;1.30;;;0.90;;
29774;SDS011;16676;51.202;6.774;2023-07-31T21:40:48;0.80;;;0.70;;
29774;SDS011;16676;51.202;6.774;2023-07-31T21:44:50;1.38;;;0.70;;
29774;SDS011;16676;51.202;6.774;2023-07-31T21:48:52;1.35;;;0.73;;
29774;SDS011;16676;51.202;6.774;2023-07-31T21:52:54;1.10;;;0.60;;
29774;SDS011;16676;51.202;6.774;2023-07-31T21:56:57;1.20;;;0.70;;
29774;SDS011;16676;51.202;6.774;2023-07-31T22:00:59;2.30;;;0.85;;
29774;SDS011;16676;51.202;6.774;2023-07-31T22:05:01;1.20;;;0.68;;
29774;SDS011;16676;51.202;6.774;2023-07-31T22:09:04;2.22;;;0.80;;
29774;SDS011;16676;51.202;6.774;2023-07-31T22:13:07;1.23;;;0.73;;
29774;SDS011;16676;51.202;6.774;2023-07-31T22:17:09;2.05;;;0.50;;
29774;SDS011;16676;51.202;6.774;2023-07-31T22:21:11;1.73;;;0.63;;
29774;SDS011;16676;51.202;6.774;2023-07-31T22:25:15;1.13;;;0.52;;
29774;SDS011;16676;51.202;6.774;2023-07-31T22:29:18;1.25;;;0.70;;
29774;SDS011;16676;51.202;6.774;2023-07-31T22:33:20;0.60;;;0.55;;
29774;SDS011;16676;51.202;6.774;2023-07-31T22:37:22;0.73;;;0.52;;
29774;SDS011;16676;51.202;6.774;2023-07-31T22:41:24;1.15;;;0.50;;
29774;SDS011;16676;51.202;6.774;2023-07-31T22:45:27;1.08;;;0.60;;
29774;SDS011;16676;51.202;6.774;2023-07-31T22:49:29;0.70;;;0.50;;
29774;SDS011;16676;51.202;6.774;2023-07-31T22:53:31;1.33;;;0.60;;
29774;SDS011;16676;51.202;6.774;2023-07-31T22:57:33;1.38;;;0.63;;
29774;SDS011;16676;51.202;6.774;2023-07-31T23:01:37;1.30;;;0.80;;
29774;SDS011;16676;51.202;6.774;2023-07-31T23:05:39;1.23;;;0.75;;
29774;SDS011;16676;51.202;6.774;2023-07-31T23:09:41;2.15;;;0.70;;
29774;SDS011;16676;51.202;6.774;2023-07-31T23:13:43;2.17;;;0.60;;
29774;SDS011;16676;51.202;6.774;2023-07-31T23:17:46;1.40;;;0.70;;
29774;SDS011;16676;51.202;6.774;2023-07-31T23:21:48;2.17;;;1.00;;
29774;SDS011;16676;51.202;6.774;2023-07-31T23:25:50;1.13;;;0.73;;
29774;SDS011;16676;51.202;6.774;2023-07-31T23:29:52;2.45;;;0.90;;
29774;SDS011;16676;51.202;6.774;2023-07-31T23:33:55;2.60;;;1.13;;
29774;SDS011;16676;51.202;6.774;2023-07-31T23:37:57;1.70;;;0.90;;
29774;SDS011;16676;51.202;6.774;2023-07-31T23:41:59;1.23;;;0.90;;
29774;SDS011;16676;51.202;6.774;2023-07-31T23:46:01;1.48;;;0.90;;
29774;SDS011;16676;51.202;6.774;2023-07-31T23:50:05;2.45;;;1.00;;
29774;SDS011;16676;51.202;6.774;2023-07-31T23:54:09;2.25;;;1.00;;
29774;SDS011;16676;51.202;6.774;2023-07-31T23:58:12;1.42;;;0.93;;
